sensor_id;sensor_type;location;lat;lon;timestamp;P1;durP1;ratioP1;P2;durP2;ratioP2
3943;SDS011;1986;52.546;13.428;2023-12-20T00:01:14;9.00;;;8.90;;
3943;SDS011;1986;52.546;13.428;2023-12-20T00:03:45;9.00;;;8.90;;
3943;SDS011;1986;52.546;13.428;2023-12-20T00:06:12;8.60;;;8.50;;
3943;SDS011;1986;52.546;13.428;2023-12-20T00:08:38;8.90;;;8.80;;
3943;SDS011;1986;52.546;13.428;2023-12-20T00:11:05;8.63;;;8.53;;
3943;SDS011;1986;52.546;13.428;2023-12-20T00:13:33;8.50;;;8.40;;
3943;SDS011;1986;52.546;13.428;2023-12-20T00:16:00;8.23;;;8.13;;
3943;SDS011;1986;52.546;13.428;2023-12-20T00:18:31;7.90;;;7.90;;
3943;SDS011;1986;52.546;13.428;2023-12-20T00:20:58;8.30;;;8.20;;
3943;SDS011;1986;52.546;13.428;2023-12-20T00:23:25;8.30;;;8.20;;
3943;SDS011;1986;52.546;13.428;2023-12-20T00:25:52;7.90;;;7.90;;
3943;SDS011;1986;52.546;13.428;2023-12-20T00:28:22;8.20;;;8.10;;
3943;SDS011;1986;52.546;13.428;2023-12-20T00:30:49;8.00;;;8.00;;
3943;SDS011;1986;52.546;13.428;2023-12-20T00:33:16;8.10;;;8.00;;
3943;SDS011;1986;52.546;13.428;2023-12-20T00:35:45;7.90;;;7.80;;
3943;SDS011;1986;52.546;13.428;2023-12-20T00:38:12;7.70;;;7.70;;
3943;SDS011;1986;52.546;13.428;2023-12-20T00:40:42;7.60;;;7.60;;
3943;SDS011;1986;52.546;13.428;2023-12-20T00:43:09;7.30;;;7.30;;
3943;SDS011;1986;52.546;13.428;2023-12-20T00:45:39;7.70;;;7.70;;
3943;SDS011;1986;52.546;13.428;2023-12-20T00:48:06;7.50;;;7.50;;
3943;SDS011;1986;52.546;13.428;2023-12-20T00:50:33;7.43;;;7.43;;
3943;SDS011;1986;52.546;13.428;2023-12-20T00:53:02;7.70;;;7.70;;
3943;SDS011;1986;52.546;13.428;2023-12-20T00:55:29;7.47;;;7.47;;
3943;SDS011;1986;52.546;13.428;2023-12-20T00:57:56;7.50;;;7.50;;
3943;SDS011;1986;52.546;13.428;2023-12-20T01:00:22;7.40;;;7.40;;
3943;SDS011;1986;52.546;13.428;2023-12-20T01:02:49;7.20;;;7.20;;
3943;SDS011;1986;52.546;13.428;2023-12-20T01:05:17;6.70;;;6.70;;
3943;SDS011;1986;52.546;13.428;2023-12-20T01:07:49;7.07;;;7.07;;
3943;SDS011;1986;52.546;13.428;2023-12-20T01:10:18;7.40;;;7.40;;
3943;SDS011;1986;52.546;13.428;2023-12-20T01:12:45;7.40;;;7.40;;
3943;SDS011;1986;52.546;13.428;2023-12-20T01:15:12;7.60;;;7.60;;
3943;SDS011;1986;52.546;13.428;2023-12-20T01:17:39;7.40;;;7.40;;
3943;SDS011;1986;52.546;13.428;2023-12-20T01:20:06;7.50;;;7.50;;
3943;SDS011;1986;52.546;13.428;2023-12-20T01:22:37;7.50;;;7.50;;
3943;SDS011;1986;52.546;13.428;2023-12-20T01:25:04;7.27;;;7.27;;
3943;SDS011;1986;52.546;13.428;2023-12-20T01:27:33;7.30;;;7.30;;
3943;SDS011;1986;52.546;13.428;2023-12-20T01:30:00;7.23;;;7.23;;
3943;SDS011;1986;52.546;13.428;2023-12-20T01:32:27;8.50;;;8.40;;
3943;SDS011;1986;52.546;13.428;2023-12-20T01:34:54;7.93;;;7.90;;
3943;SDS011;1986;52.546;13.428;2023-12-20T01:37:21;7.47;;;7.47;;
3943;SDS011;1986;52.546;13.428;2023-12-20T01:39:49;6.80;;;6.80;;
3943;SDS011;1986;52.546;13.428;2023-12-20T01:42:15;6.53;;;6.53;;
3943;SDS011;1986;52.546;13.428;2023-12-20T01:44:44;6.30;;;6.30;;
3943;SDS011;1986;52.546;13.428;2023-12-20T01:47:11;6.60;;;6.60;;
3943;SDS011;1986;52.546;13.428;2023-12-20T01:49:39;6.90;;;6.90;;
3943;SDS011;1986;52.546;13.428;2023-12-20T01:52:06;6.70;;;6.70;;
3943;SDS011;1986;52.546;13.428;2023-12-20T01:54:34;6.67;;;6.67;;
3943;SDS011;1986;52.546;13.428;2023-12-20T01:57:02;6.63;;;6.63;;
3943;SDS011;1986;52.546;13.428;2023-12-20T01:59:29;6.30;;;6.30;;
3943;SDS011;1986;52.546;13.428;2023-12-20T02:01:58;6.90;;;6.90;;
3943;SDS011;1986;52.546;13.428;2023-12-20T02:04:25;6.70;;;6.70;;
3943;SDS011;1986;52.546;13.428;2023-12-20T02:06:53;7.00;;;7.00;;
3943;SDS011;1986;52.546;13.428;2023-12-20T02:09:21;6.80;;;6.80;;
3943;SDS011;1986;52.546;13.428;2023-12-20T02:11:49;6.90;;;6.90;;
3943;SDS011;1986;52.546;13.428;2023-12-20T02:14:16;6.80;;;6.80;;
3943;SDS011;1986;52.546;13.428;2023-12-20T02:16:43;7.20;;;7.20;;
3943;SDS011;1986;52.546;13.428;2023-12-20T02:19:13;7.33;;;7.33;;
3943;SDS011;1986;52.546;13.428;2023-12-20T02:21:42;7.20;;;7.20;;
3943;SDS011;1986;52.546;13.428;2023-12-20T02:24:09;7.20;;;7.20;;
3943;SDS011;1986;52.546;13.428;2023-12-20T02:26:36;7.17;;;7.17;;
3943;SDS011;1986;52.546;13.428;2023-12-20T02:29:03;7.27;;;7.27;;
3943;SDS011;1986;52.546;13.428;2023-12-20T02:31:30;7.40;;;7.40;;
3943;SDS011;1986;52.546;13.428;2023-12-20T02:33:58;8.20;;;8.10;;
3943;SDS011;1986;52.546;13.428;2023-12-20T02:36:25;8.40;;;8.30;;
3943;SDS011;1986;52.546;13.428;2023-12-20T02:38:54;8.53;;;8.43;;
3943;SDS011;1986;52.546;13.428;2023-12-20T02:41:22;8.80;;;8.70;;
3943;SDS011;1986;52.546;13.428;2023-12-20T02:43:49;8.90;;;8.80;;
3943;SDS011;1986;52.546;13.428;2023-12-20T02:46:16;8.90;;;8.80;;
3943;SDS011;1986;52.546;13.428;2023-12-20T02:48:44;8.80;;;8.70;;
3943;SDS011;1986;52.546;13.428;2023-12-20T02:51:12;9.00;;;8.90;;
3943;SDS011;1986;52.546;13.428;2023-12-20T02:53:40;9.10;;;9.00;;
3943;SDS011;1986;52.546;13.428;2023-12-20T02:56:10;9.00;;;8.90;;
3943;SDS011;1986;52.546;13.428;2023-12-20T02:58:37;8.93;;;8.83;;
3943;SDS011;1986;52.546;13.428;2023-12-20T03:01:05;9.33;;;9.23;;
3943;SDS011;1986;52.546;13.428;2023-12-20T03:03:33;9.10;;;9.00;;
3943;SDS011;1986;52.546;13.428;2023-12-20T03:06:00;9.70;;;9.60;;
3943;SDS011;1986;52.546;13.428;2023-12-20T03:08:27;9.43;;;9.33;;
3943;SDS011;1986;52.546;13.428;2023-12-20T03:10:54;9.10;;;9.00;;
3943;SDS011;1986;52.546;13.428;2023-12-20T03:13:23;9.17;;;9.07;;
3943;SDS011;1986;52.546;13.428;2023-12-20T03:15:50;9.20;;;9.10;;
3943;SDS011;1986;52.546;13.428;2023-12-20T03:18:19;9.30;;;9.20;;
3943;SDS011;1986;52.546;13.428;2023-12-20T03:20:48;8.90;;;8.80;;
3943;SDS011;1986;52.546;13.428;2023-12-20T03:23:16;8.60;;;8.50;;
3943;SDS011;1986;52.546;13.428;2023-12-20T03:25:43;8.70;;;8.60;;
3943;SDS011;1986;52.546;13.428;2023-12-20T03:28:16;8.87;;;8.77;;
3943;SDS011;1986;52.546;13.428;2023-12-20T03:30:45;8.77;;;8.67;;
3943;SDS011;1986;52.546;13.428;2023-12-20T03:33:12;9.40;;;9.30;;
3943;SDS011;1986;52.546;13.428;2023-12-20T03:35:40;9.00;;;8.90;;
3943;SDS011;1986;52.546;13.428;2023-12-20T03:38:07;9.20;;;9.10;;
3943;SDS011;1986;52.546;13.428;2023-12-20T03:40:36;9.00;;;8.90;;
3943;SDS011;1986;52.546;13.428;2023-12-20T03:43:03;9.00;;;8.90;;
3943;SDS011;1986;52.546;13.428;2023-12-20T03:45:31;9.13;;;9.03;;
3943;SDS011;1986;52.546;13.428;2023-12-20T03:47:59;9.13;;;9.03;;
3943;SDS011;1986;52.546;13.428;2023-12-20T03:50:28;8.50;;;8.40;;
3943;SDS011;1986;52.546;13.428;2023-12-20T03:52:55;7.83;;;7.83;;
3943;SDS011;1986;52.546;13.428;2023-12-20T03:55:22;7.60;;;7.60;;
3943;SDS011;1986;52.546;13.428;2023-12-20T03:57:50;7.90;;;7.90;;
3943;SDS011;1986;52.546;13.428;2023-12-20T04:00:18;7.30;;;7.30;;
3943;SDS011;1986;52.546;13.428;2023-12-20T04:02:45;7.93;;;7.90;;
3943;SDS011;1986;52.546;13.428;2023-12-20T04:05:14;6.63;;;6.63;;
3943;SDS011;1986;52.546;13.428;2023-12-20T04:07:41;7.10;;;7.10;;
3943;SDS011;1986;52.546;13.428;2023-12-20T04:10:09;6.23;;;6.23;;
3943;SDS011;1986;52.546;13.428;2023-12-20T04:12:36;6.60;;;6.60;;
3943;SDS011;1986;52.546;13.428;2023-12-20T04:15:03;6.10;;;6.10;;
3943;SDS011;1986;52.546;13.428;2023-12-20T04:17:34;6.50;;;6.50;;
3943;SDS011;1986;52.546;13.428;2023-12-20T04:20:02;5.17;;;5.17;;
3943;SDS011;1986;52.546;13.428;2023-12-20T04:22:31;4.90;;;4.90;;
3943;SDS011;1986;52.546;13.428;2023-12-20T04:25:01;5.20;;;5.20;;
3943;SDS011;1986;52.546;13.428;2023-12-20T04:27:28;4.20;;;4.20;;
3943;SDS011;1986;52.546;13.428;2023-12-20T04:29:55;4.10;;;4.10;;
3943;SDS011;1986;52.546;13.428;2023-12-20T04:32:22;3.40;;;3.40;;
3943;SDS011;1986;52.546;13.428;2023-12-20T04:34:50;3.40;;;3.40;;
3943;SDS011;1986;52.546;13.428;2023-12-20T04:37:19;3.50;;;3.50;;
3943;SDS011;1986;52.546;13.428;2023-12-20T04:39:50;3.83;;;3.83;;
3943;SDS011;1986;52.546;13.428;2023-12-20T04:42:17;3.37;;;3.37;;
3943;SDS011;1986;52.546;13.428;2023-12-20T04:44:44;2.90;;;2.90;;
3943;SDS011;1986;52.546;13.428;2023-12-20T04:47:11;3.10;;;3.10;;
3943;SDS011;1986;52.546;13.428;2023-12-20T04:49:38;2.70;;;2.70;;
3943;SDS011;1986;52.546;13.428;2023-12-20T04:52:05;2.10;;;2.10;;
3943;SDS011;1986;52.546;13.428;2023-12-20T04:54:32;2.13;;;2.13;;
3943;SDS011;1986;52.546;13.428;2023-12-20T04:57:00;1.60;;;1.60;;
3943;SDS011;1986;52.546;13.428;2023-12-20T04:59:27;1.70;;;1.70;;
3943;SDS011;1986;52.546;13.428;2023-12-20T05:01:54;1.70;;;1.70;;
3943;SDS011;1986;52.546;13.428;2023-12-20T05:04:22;2.13;;;2.13;;
3943;SDS011;1986;52.546;13.428;2023-12-20T05:06:49;2.00;;;2.00;;
3943;SDS011;1986;52.546;13.428;2023-12-20T05:09:18;1.80;;;1.80;;
3943;SDS011;1986;52.546;13.428;2023-12-20T05:11:45;2.20;;;2.20;;
3943;SDS011;1986;52.546;13.428;2023-12-20T05:14:13;1.80;;;1.80;;
3943;SDS011;1986;52.546;13.428;2023-12-20T05:16:40;1.70;;;1.70;;
3943;SDS011;1986;52.546;13.428;2023-12-20T05:19:07;1.40;;;1.40;;
3943;SDS011;1986;52.546;13.428;2023-12-20T05:21:34;1.40;;;1.40;;
3943;SDS011;1986;52.546;13.428;2023-12-20T05:24:01;1.10;;;1.10;;
3943;SDS011;1986;52.546;13.428;2023-12-20T05:26:29;1.07;;;1.07;;
3943;SDS011;1986;52.546;13.428;2023-12-20T05:28:56;1.10;;;1.10;;
3943;SDS011;1986;52.546;13.428;2023-12-20T05:31:26;1.10;;;1.10;;
3943;SDS011;1986;52.546;13.428;2023-12-20T05:33:53;1.20;;;1.20;;
3943;SDS011;1986;52.546;13.428;2023-12-20T05:36:21;1.30;;;1.30;;
3943;SDS011;1986;52.546;13.428;2023-12-20T05:38:48;1.07;;;1.07;;
3943;SDS011;1986;52.546;13.428;2023-12-20T05:41:15;1.10;;;1.10;;
3943;SDS011;1986;52.546;13.428;2023-12-20T05:43:42;1.10;;;1.10;;
3943;SDS011;1986;52.546;13.428;2023-12-20T05:46:10;1.20;;;1.20;;
3943;SDS011;1986;52.546;13.428;2023-12-20T05:48:40;1.13;;;1.13;;
3943;SDS011;1986;52.546;13.428;2023-12-20T05:51:11;1.00;;;1.00;;
3943;SDS011;1986;52.546;13.428;2023-12-20T05:53:38;1.00;;;1.00;;
3943;SDS011;1986;52.546;13.428;2023-12-20T05:56:07;1.10;;;1.10;;
3943;SDS011;1986;52.546;13.428;2023-12-20T05:58:36;0.90;;;0.90;;
3943;SDS011;1986;52.546;13.428;2023-12-20T06:01:04;1.10;;;1.10;;
3943;SDS011;1986;52.546;13.428;2023-12-20T06:03:33;1.00;;;1.00;;
3943;SDS011;1986;52.546;13.428;2023-12-20T06:06:05;1.03;;;1.03;;
3943;SDS011;1986;52.546;13.428;2023-12-20T06:08:33;0.80;;;0.80;;
3943;SDS011;1986;52.546;13.428;2023-12-20T06:11:00;0.90;;;0.90;;
3943;SDS011;1986;52.546;13.428;2023-12-20T06:13:27;0.80;;;0.80;;
3943;SDS011;1986;52.546;13.428;2023-12-20T06:15:55;0.80;;;0.80;;
3943;SDS011;1986;52.546;13.428;2023-12-20T06:18:22;0.80;;;0.80;;
3943;SDS011;1986;52.546;13.428;2023-12-20T06:20:50;0.70;;;0.70;;
3943;SDS011;1986;52.546;13.428;2023-12-20T06:23:20;0.80;;;0.80;;
3943;SDS011;1986;52.546;13.428;2023-12-20T06:25:47;0.70;;;0.70;;
3943;SDS011;1986;52.546;13.428;2023-12-20T06:28:14;0.80;;;0.80;;
3943;SDS011;1986;52.546;13.428;2023-12-20T06:30:41;0.70;;;0.70;;
3943;SDS011;1986;52.546;13.428;2023-12-20T06:33:08;0.60;;;0.60;;
3943;SDS011;1986;52.546;13.428;2023-12-20T06:35:36;0.90;;;0.90;;
3943;SDS011;1986;52.546;13.428;2023-12-20T06:38:07;1.00;;;1.00;;
3943;SDS011;1986;52.546;13.428;2023-12-20T06:40:36;1.10;;;1.10;;
3943;SDS011;1986;52.546;13.428;2023-12-20T06:43:05;1.10;;;1.10;;
3943;SDS011;1986;52.546;13.428;2023-12-20T06:45:33;1.00;;;1.00;;
3943;SDS011;1986;52.546;13.428;2023-12-20T06:48:01;0.90;;;0.90;;
3943;SDS011;1986;52.546;13.428;2023-12-20T06:50:28;0.80;;;0.80;;
3943;SDS011;1986;52.546;13.428;2023-12-20T06:53:09;0.90;;;0.90;;
3943;SDS011;1986;52.546;13.428;2023-12-20T06:55:43;0.83;;;0.83;;
3943;SDS011;1986;52.546;13.428;2023-12-20T06:58:10;0.80;;;0.80;;
3943;SDS011;1986;52.546;13.428;2023-12-20T07:00:38;0.80;;;0.80;;
3943;SDS011;1986;52.546;13.428;2023-12-20T07:03:08;0.70;;;0.70;;
3943;SDS011;1986;52.546;13.428;2023-12-20T07:05:49;0.80;;;0.80;;
3943;SDS011;1986;52.546;13.428;2023-12-20T07:08:19;0.90;;;0.90;;
3943;SDS011;1986;52.546;13.428;2023-12-20T07:10:48;0.80;;;0.80;;
3943;SDS011;1986;52.546;13.428;2023-12-20T07:13:15;0.80;;;0.80;;
3943;SDS011;1986;52.546;13.428;2023-12-20T07:15:42;0.80;;;0.80;;
3943;SDS011;1986;52.546;13.428;2023-12-20T07:18:12;1.00;;;1.00;;
3943;SDS011;1986;52.546;13.428;2023-12-20T07:20:42;1.00;;;1.00;;
3943;SDS011;1986;52.546;13.428;2023-12-20T07:23:12;1.10;;;1.10;;
3943;SDS011;1986;52.546;13.428;2023-12-20T07:25:41;1.30;;;1.30;;
3943;SDS011;1986;52.546;13.428;2023-12-20T07:31:26;1.70;;;1.70;;
3943;SDS011;1986;52.546;13.428;2023-12-20T07:33:53;1.70;;;1.70;;
3943;SDS011;1986;52.546;13.428;2023-12-20T07:36:24;1.80;;;1.80;;
3943;SDS011;1986;52.546;13.428;2023-12-20T07:38:51;1.80;;;1.80;;
3943;SDS011;1986;52.546;13.428;2023-12-20T07:41:19;2.27;;;2.27;;
3943;SDS011;1986;52.546;13.428;2023-12-20T07:43:50;2.07;;;2.07;;
3943;SDS011;1986;52.546;13.428;2023-12-20T07:46:18;2.30;;;2.30;;
3943;SDS011;1986;52.546;13.428;2023-12-20T07:48:48;2.23;;;2.23;;
3943;SDS011;1986;52.546;13.428;2023-12-20T07:51:18;2.10;;;2.10;;
3943;SDS011;1986;52.546;13.428;2023-12-20T07:53:46;2.17;;;2.17;;
3943;SDS011;1986;52.546;13.428;2023-12-20T07:56:14;2.80;;;2.80;;
3943;SDS011;1986;52.546;13.428;2023-12-20T07:58:43;2.40;;;2.40;;
3943;SDS011;1986;52.546;13.428;2023-12-20T08:01:12;2.40;;;2.40;;
3943;SDS011;1986;52.546;13.428;2023-12-20T08:03:39;2.80;;;2.80;;
3943;SDS011;1986;52.546;13.428;2023-12-20T08:06:06;2.83;;;2.83;;
3943;SDS011;1986;52.546;13.428;2023-12-20T08:08:34;2.60;;;2.60;;
3943;SDS011;1986;52.546;13.428;2023-12-20T08:11:02;2.87;;;2.87;;
3943;SDS011;1986;52.546;13.428;2023-12-20T08:13:29;3.40;;;3.40;;
3943;SDS011;1986;52.546;13.428;2023-12-20T08:15:56;3.50;;;3.50;;
3943;SDS011;1986;52.546;13.428;2023-12-20T08:18:25;3.07;;;3.07;;
3943;SDS011;1986;52.546;13.428;2023-12-20T08:20:52;3.10;;;3.10;;
3943;SDS011;1986;52.546;13.428;2023-12-20T08:23:20;3.20;;;3.20;;
3943;SDS011;1986;52.546;13.428;2023-12-20T08:25:48;2.87;;;2.87;;
3943;SDS011;1986;52.546;13.428;2023-12-20T08:28:18;3.10;;;3.10;;
3943;SDS011;1986;52.546;13.428;2023-12-20T08:30:47;2.90;;;2.90;;
3943;SDS011;1986;52.546;13.428;2023-12-20T08:33:15;3.00;;;3.00;;
3943;SDS011;1986;52.546;13.428;2023-12-20T08:35:43;3.10;;;3.10;;
3943;SDS011;1986;52.546;13.428;2023-12-20T08:38:13;3.30;;;3.30;;
3943;SDS011;1986;52.546;13.428;2023-12-20T08:40:40;3.20;;;3.20;;
3943;SDS011;1986;52.546;13.428;2023-12-20T08:43:08;3.03;;;3.03;;
3943;SDS011;1986;52.546;13.428;2023-12-20T08:45:40;3.60;;;3.60;;
3943;SDS011;1986;52.546;13.428;2023-12-20T08:48:12;3.60;;;3.60;;
3943;SDS011;1986;52.546;13.428;2023-12-20T08:50:39;3.53;;;3.53;;
3943;SDS011;1986;52.546;13.428;2023-12-20T08:53:08;3.50;;;3.50;;
3943;SDS011;1986;52.546;13.428;2023-12-20T08:55:35;3.50;;;3.50;;
3943;SDS011;1986;52.546;13.428;2023-12-20T08:58:07;3.70;;;3.70;;
3943;SDS011;1986;52.546;13.428;2023-12-20T09:00:37;3.50;;;3.50;;
3943;SDS011;1986;52.546;13.428;2023-12-20T09:03:04;3.83;;;3.83;;
3943;SDS011;1986;52.546;13.428;2023-12-20T09:05:31;4.00;;;4.00;;
3943;SDS011;1986;52.546;13.428;2023-12-20T09:08:00;4.67;;;4.67;;
3943;SDS011;1986;52.546;13.428;2023-12-20T09:10:32;4.40;;;4.40;;
3943;SDS011;1986;52.546;13.428;2023-12-20T09:13:00;4.60;;;4.60;;
3943;SDS011;1986;52.546;13.428;2023-12-20T09:15:29;5.40;;;5.40;;
3943;SDS011;1986;52.546;13.428;2023-12-20T09:18:02;5.47;;;5.47;;
3943;SDS011;1986;52.546;13.428;2023-12-20T09:20:31;5.80;;;5.80;;
3943;SDS011;1986;52.546;13.428;2023-12-20T09:23:00;5.50;;;5.50;;
3943;SDS011;1986;52.546;13.428;2023-12-20T09:25:33;5.90;;;5.90;;
3943;SDS011;1986;52.546;13.428;2023-12-20T09:28:19;5.90;;;5.90;;
3943;SDS011;1986;52.546;13.428;2023-12-20T09:31:04;6.40;;;6.40;;
3943;SDS011;1986;52.546;13.428;2023-12-20T09:33:31;6.30;;;6.30;;
3943;SDS011;1986;52.546;13.428;2023-12-20T09:36:01;6.70;;;6.70;;
3943;SDS011;1986;52.546;13.428;2023-12-20T09:38:30;5.97;;;5.97;;
3943;SDS011;1986;52.546;13.428;2023-12-20T09:40:59;6.10;;;6.10;;
3943;SDS011;1986;52.546;13.428;2023-12-20T09:43:29;6.00;;;6.00;;
3943;SDS011;1986;52.546;13.428;2023-12-20T09:46:00;6.20;;;6.20;;
3943;SDS011;1986;52.546;13.428;2023-12-20T09:48:32;5.70;;;5.70;;
3943;SDS011;1986;52.546;13.428;2023-12-20T09:51:09;5.30;;;5.30;;
3943;SDS011;1986;52.546;13.428;2023-12-20T09:53:36;5.10;;;5.10;;
3943;SDS011;1986;52.546;13.428;2023-12-20T09:56:08;5.10;;;5.10;;
3943;SDS011;1986;52.546;13.428;2023-12-20T09:59:02;5.40;;;5.40;;
3943;SDS011;1986;52.546;13.428;2023-12-20T10:01:28;5.60;;;5.60;;
3943;SDS011;1986;52.546;13.428;2023-12-20T10:04:01;6.60;;;6.60;;
3943;SDS011;1986;52.546;13.428;2023-12-20T10:06:34;6.50;;;6.50;;
3943;SDS011;1986;52.546;13.428;2023-12-20T10:09:17;6.90;;;6.90;;
3943;SDS011;1986;52.546;13.428;2023-12-20T10:17:49;8.20;;;8.10;;
3943;SDS011;1986;52.546;13.428;2023-12-20T10:20:20;8.07;;;8.07;;
3943;SDS011;1986;52.546;13.428;2023-12-20T10:22:51;7.50;;;7.50;;
3943;SDS011;1986;52.546;13.428;2023-12-20T10:25:33;7.30;;;7.30;;
3943;SDS011;1986;52.546;13.428;2023-12-20T10:28:39;9.10;;;9.00;;
3943;SDS011;1986;52.546;13.428;2023-12-20T10:31:03;7.90;;;7.90;;
3943;SDS011;1986;52.546;13.428;2023-12-20T10:33:31;8.30;;;8.20;;
3943;SDS011;1986;52.546;13.428;2023-12-20T10:36:16;8.70;;;8.60;;
3943;SDS011;1986;52.546;13.428;2023-12-20T10:38:48;8.40;;;8.30;;
3943;SDS011;1986;52.546;13.428;2023-12-20T10:41:19;7.73;;;7.73;;
3943;SDS011;1986;52.546;13.428;2023-12-20T10:43:56;8.17;;;8.10;;
3943;SDS011;1986;52.546;13.428;2023-12-20T10:46:33;7.90;;;7.90;;
3943;SDS011;1986;52.546;13.428;2023-12-20T10:49:01;7.70;;;7.70;;
3943;SDS011;1986;52.546;13.428;2023-12-20T10:51:33;7.63;;;7.63;;
3943;SDS011;1986;52.546;13.428;2023-12-20T10:54:01;8.10;;;8.10;;
3943;SDS011;1986;52.546;13.428;2023-12-20T10:56:31;7.80;;;7.80;;
3943;SDS011;1986;52.546;13.428;2023-12-20T10:59:01;8.43;;;8.33;;
3943;SDS011;1986;52.546;13.428;2023-12-20T11:01:32;8.50;;;8.40;;
3943;SDS011;1986;52.546;13.428;2023-12-20T11:04:07;8.60;;;8.50;;
3943;SDS011;1986;52.546;13.428;2023-12-20T11:06:45;8.63;;;8.53;;
3943;SDS011;1986;52.546;13.428;2023-12-20T11:09:21;9.17;;;9.07;;
3943;SDS011;1986;52.546;13.428;2023-12-20T11:12:01;9.60;;;9.50;;
3943;SDS011;1986;52.546;13.428;2023-12-20T11:14:41;9.20;;;9.10;;
3943;SDS011;1986;52.546;13.428;2023-12-20T11:17:33;9.10;;;9.00;;
3943;SDS011;1986;52.546;13.428;2023-12-20T11:20:08;8.63;;;8.53;;
3943;SDS011;1986;52.546;13.428;2023-12-20T11:22:39;9.00;;;8.90;;
3943;SDS011;1986;52.546;13.428;2023-12-20T11:25:22;7.90;;;7.90;;
3943;SDS011;1986;52.546;13.428;2023-12-20T11:30:57;7.30;;;7.30;;
3943;SDS011;1986;52.546;13.428;2023-12-20T11:33:47;7.70;;;7.70;;
3943;SDS011;1986;52.546;13.428;2023-12-20T11:36:18;7.30;;;7.30;;
3943;SDS011;1986;52.546;13.428;2023-12-20T11:38:55;7.00;;;7.00;;
3943;SDS011;1986;52.546;13.428;2023-12-20T11:41:35;7.00;;;7.00;;
3943;SDS011;1986;52.546;13.428;2023-12-20T11:44:04;7.10;;;7.10;;
3943;SDS011;1986;52.546;13.428;2023-12-20T11:46:45;7.13;;;7.13;;
3943;SDS011;1986;52.546;13.428;2023-12-20T11:49:24;7.43;;;7.43;;
3943;SDS011;1986;52.546;13.428;2023-12-20T11:52:06;7.30;;;7.30;;
3943;SDS011;1986;52.546;13.428;2023-12-20T11:54:34;7.50;;;7.50;;
3943;SDS011;1986;52.546;13.428;2023-12-20T11:57:04;7.40;;;7.40;;
3943;SDS011;1986;52.546;13.428;2023-12-20T11:59:37;7.40;;;7.40;;
3943;SDS011;1986;52.546;13.428;2023-12-20T12:02:25;6.90;;;6.90;;
3943;SDS011;1986;52.546;13.428;2023-12-20T12:05:05;7.27;;;7.27;;
3943;SDS011;1986;52.546;13.428;2023-12-20T12:07:48;7.50;;;7.50;;
3943;SDS011;1986;52.546;13.428;2023-12-20T12:10:31;7.80;;;7.80;;
3943;SDS011;1986;52.546;13.428;2023-12-20T12:13:01;7.80;;;7.80;;
3943;SDS011;1986;52.546;13.428;2023-12-20T12:15:29;7.90;;;7.90;;
3943;SDS011;1986;52.546;13.428;2023-12-20T12:17:58;8.20;;;8.10;;
3943;SDS011;1986;52.546;13.428;2023-12-20T12:20:27;7.80;;;7.80;;
3943;SDS011;1986;52.546;13.428;2023-12-20T12:23:03;8.30;;;8.20;;
3943;SDS011;1986;52.546;13.428;2023-12-20T12:25:32;8.20;;;8.10;;
3943;SDS011;1986;52.546;13.428;2023-12-20T12:28:15;8.90;;;8.80;;
3943;SDS011;1986;52.546;13.428;2023-12-20T12:31:00;7.73;;;7.73;;
3943;SDS011;1986;52.546;13.428;2023-12-20T12:33:43;7.57;;;7.57;;
3943;SDS011;1986;52.546;13.428;2023-12-20T12:39:56;7.40;;;7.40;;
3943;SDS011;1986;52.546;13.428;2023-12-20T12:42:26;6.90;;;6.90;;
3943;SDS011;1986;52.546;13.428;2023-12-20T12:44:55;6.20;;;6.20;;
3943;SDS011;1986;52.546;13.428;2023-12-20T12:47:22;5.30;;;5.30;;
3943;SDS011;1986;52.546;13.428;2023-12-20T12:49:50;3.93;;;3.93;;
3943;SDS011;1986;52.546;13.428;2023-12-20T12:52:20;4.00;;;4.00;;
3943;SDS011;1986;52.546;13.428;2023-12-20T12:54:47;3.50;;;3.50;;
3943;SDS011;1986;52.546;13.428;2023-12-20T13:00:00;4.50;;;4.50;;
3943;SDS011;1986;52.546;13.428;2023-12-20T13:02:31;4.00;;;4.00;;
3943;SDS011;1986;52.546;13.428;2023-12-20T13:04:58;3.60;;;3.60;;
3943;SDS011;1986;52.546;13.428;2023-12-20T13:07:27;3.07;;;3.07;;
3943;SDS011;1986;52.546;13.428;2023-12-20T13:09:55;5.47;;;5.47;;
3943;SDS011;1986;52.546;13.428;2023-12-20T13:12:22;6.73;;;6.73;;
3943;SDS011;1986;52.546;13.428;2023-12-20T13:14:53;8.20;;;8.20;;
3943;SDS011;1986;52.546;13.428;2023-12-20T13:17:25;14.37;;;14.17;;
3943;SDS011;1986;52.546;13.428;2023-12-20T13:19:53;20.20;;;19.60;;
3943;SDS011;1986;52.546;13.428;2023-12-20T13:22:22;23.60;;;22.70;;
3943;SDS011;1986;52.546;13.428;2023-12-20T13:24:51;23.77;;;22.87;;
3943;SDS011;1986;52.546;13.428;2023-12-20T13:27:30;23.20;;;22.30;;
3943;SDS011;1986;52.546;13.428;2023-12-20T13:30:01;22.77;;;21.90;;
3943;SDS011;1986;52.546;13.428;2023-12-20T13:32:30;22.50;;;21.70;;
3943;SDS011;1986;52.546;13.428;2023-12-20T13:34:58;22.83;;;22.03;;
3943;SDS011;1986;52.546;13.428;2023-12-20T13:37:27;22.40;;;21.60;;
3943;SDS011;1986;52.546;13.428;2023-12-20T13:39:54;21.60;;;20.90;;
3943;SDS011;1986;52.546;13.428;2023-12-20T13:42:24;20.83;;;20.23;;
3943;SDS011;1986;52.546;13.428;2023-12-20T13:44:55;18.33;;;17.83;;
3943;SDS011;1986;52.546;13.428;2023-12-20T13:47:27;18.43;;;17.93;;
3943;SDS011;1986;52.546;13.428;2023-12-20T13:50:08;16.80;;;16.40;;
3943;SDS011;1986;52.546;13.428;2023-12-20T13:52:44;15.63;;;15.33;;
3943;SDS011;1986;52.546;13.428;2023-12-20T13:55:30;14.90;;;14.70;;
3943;SDS011;1986;52.546;13.428;2023-12-20T13:58:09;14.80;;;14.60;;
3943;SDS011;1986;52.546;13.428;2023-12-20T14:00:36;14.30;;;14.10;;
3943;SDS011;1986;52.546;13.428;2023-12-20T14:06:35;16.83;;;16.43;;
3943;SDS011;1986;52.546;13.428;2023-12-20T14:09:05;15.77;;;15.47;;
3943;SDS011;1986;52.546;13.428;2023-12-20T14:11:37;14.20;;;14.00;;
3943;SDS011;1986;52.546;13.428;2023-12-20T14:14:09;13.17;;;13.00;;
3943;SDS011;1986;52.546;13.428;2023-12-20T14:16:40;12.70;;;12.60;;
3943;SDS011;1986;52.546;13.428;2023-12-20T14:19:25;14.47;;;14.27;;
3943;SDS011;1986;52.546;13.428;2023-12-20T14:22:00;12.00;;;11.90;;
3943;SDS011;1986;52.546;13.428;2023-12-20T14:24:35;11.50;;;11.40;;
3943;SDS011;1986;52.546;13.428;2023-12-20T14:27:22;11.60;;;11.50;;
3943;SDS011;1986;52.546;13.428;2023-12-20T14:29:52;11.30;;;11.20;;
3943;SDS011;1986;52.546;13.428;2023-12-20T14:32:28;9.50;;;9.40;;
3943;SDS011;1986;52.546;13.428;2023-12-20T14:38:59;8.67;;;8.57;;
3943;SDS011;1986;52.546;13.428;2023-12-20T14:41:52;8.63;;;8.53;;
3943;SDS011;1986;52.546;13.428;2023-12-20T14:44:36;8.00;;;8.00;;
3943;SDS011;1986;52.546;13.428;2023-12-20T14:47:13;7.83;;;7.83;;
3943;SDS011;1986;52.546;13.428;2023-12-20T14:49:46;7.90;;;7.90;;
3943;SDS011;1986;52.546;13.428;2023-12-20T14:52:45;7.47;;;7.47;;
3943;SDS011;1986;52.546;13.428;2023-12-20T14:55:20;7.60;;;7.60;;
3943;SDS011;1986;52.546;13.428;2023-12-20T14:57:51;7.70;;;7.70;;
3943;SDS011;1986;52.546;13.428;2023-12-20T15:00:24;7.17;;;7.17;;
3943;SDS011;1986;52.546;13.428;2023-12-20T15:03:29;7.50;;;7.50;;
3943;SDS011;1986;52.546;13.428;2023-12-20T15:08:54;7.60;;;7.60;;
3943;SDS011;1986;52.546;13.428;2023-12-20T15:14:53;7.70;;;7.70;;
3943;SDS011;1986;52.546;13.428;2023-12-20T15:17:26;7.60;;;7.60;;
3943;SDS011;1986;52.546;13.428;2023-12-20T15:23:20;6.60;;;6.60;;
3943;SDS011;1986;52.546;13.428;2023-12-20T15:26:04;5.70;;;5.70;;
3943;SDS011;1986;52.546;13.428;2023-12-20T15:28:55;5.27;;;5.27;;
3943;SDS011;1986;52.546;13.428;2023-12-20T15:34:37;5.20;;;5.20;;
3943;SDS011;1986;52.546;13.428;2023-12-20T15:37:21;5.20;;;5.20;;
3943;SDS011;1986;52.546;13.428;2023-12-20T15:39:51;4.07;;;4.07;;
3943;SDS011;1986;52.546;13.428;2023-12-20T15:42:21;4.00;;;4.00;;
3943;SDS011;1986;52.546;13.428;2023-12-20T15:44:53;4.03;;;4.03;;
3943;SDS011;1986;52.546;13.428;2023-12-20T15:47:39;4.30;;;4.30;;
3943;SDS011;1986;52.546;13.428;2023-12-20T15:50:26;4.30;;;4.30;;
3943;SDS011;1986;52.546;13.428;2023-12-20T15:53:08;4.33;;;4.33;;
3943;SDS011;1986;52.546;13.428;2023-12-20T15:55:48;4.40;;;4.40;;
3943;SDS011;1986;52.546;13.428;2023-12-20T15:58:23;4.60;;;4.60;;
3943;SDS011;1986;52.546;13.428;2023-12-20T16:01:20;5.50;;;5.50;;